Darstellungsparameter: Aktuell verwendete Einstellungen:
Skalierung der Graphiken ... ?
xyx+y,   Skalierungsfaktor:      Skalierung: Modus: x, Faktor: 1
Darstellungszeitraum ... ?
Vom - - bis: - -   Zeitraum: 10.10.2011 - 16.10.2011
Min/Max/Avg-Anzeige ... ?
Zeige MMA aktuell
Zeige MMA Monat
Zeige MMA alles
Zeige --A aktuell
Zeige --A Monat
Zeige --A alles
Keine MMA-Anzeige
MMA:
Keine MMA-Graphiken
MMA-Basis: 10.10.2011 - 16.10.2011
Quicknavigation für Darstellung... ?
Tage:      1T, 2T, 3T, 5T -1T -2T -3T -5T +1T +2T +3T +5T
Wochen: 1W, 2W, 3W -1W -2W -3W +1W +2W +3W
Monate: 1M, 3M, 6M -1M -3M -6M +1M +3M +6M
Jahre:    1J, 3J, 5J, 10J -1J -3J -5J -10J +1J +3J +5J +10J
Nutze für die Darstellung ... ?
Originaldaten oder Mittelwerte auf ...
Stundenbasis Tagesbasis Wochenbasis
Monatsbasis Jahresbasis      Datenbasis: Original-Daten
Darstellen als:
Statistik (Auto) Statistik J:M      Darstellung:
Zur Graphik,    zurück zur Übersicht aller Sensoren.
 
Tabellarische Datenbersicht: ?
 
Sensor: Nr:Datum:Temp:Feuchte:Taupunkt:
Aussen-T/F 1 10-10-2011 00:09:03 10.9 C 86 % 8.65 C
2 10-10-2011 00:21:03 10.8 C 86 % 8.56 C
3 10-10-2011 00:33:03 11.1 C 86 % 8.85 C
4 10-10-2011 00:45:04 11.2 C 85 % 8.77 C
5 10-10-2011 00:57:04 11.4 C 84 % 8.8 C
6 10-10-2011 01:09:04 11.7 C 84 % 9.09 C
7 10-10-2011 01:21:04 11.7 C 84 % 9.09 C
8 10-10-2011 01:33:04 11.7 C 84 % 9.09 C
9 10-10-2011 01:45:04 11.7 C 84 % 9.09 C
10 10-10-2011 01:57:04 11.9 C 85 % 9.46 C
11 10-10-2011 02:09:04 11.9 C 84 % 9.29 C
12 10-10-2011 02:21:04 12.1 C 84 % 9.48 C
13 10-10-2011 02:33:04 12.2 C 83 % 9.4 C
14 10-10-2011 02:45:04 12.1 C 83 % 9.3 C
15 10-10-2011 02:57:04 12.2 C 84 % 9.58 C
16 10-10-2011 03:09:04 12.3 C 84 % 9.68 C
17 10-10-2011 03:21:04 12.3 C 84 % 9.68 C
18 10-10-2011 03:33:04 12.5 C 84 % 9.87 C
19 10-10-2011 03:45:04 12.7 C 85 % 10.25 C
20 10-10-2011 03:57:04 12.8 C 85 % 10.34 C
21 10-10-2011 04:09:04 12.8 C 84 % 10.17 C
22 10-10-2011 04:21:04 12.8 C 84 % 10.17 C
23 10-10-2011 04:33:04 12.7 C 84 % 10.07 C
24 10-10-2011 04:45:04 12.7 C 85 % 10.25 C
25 10-10-2011 04:57:04 12.9 C 85 % 10.44 C
Sensor: Nr:Datum:Temp:Feuchte:Taupunkt:
Aussen-T/F 26 10-10-2011 05:09:05 12.9 C 85 % 10.44 C
27 10-10-2011 05:21:05 13.1 C 84 % 10.46 C
28 10-10-2011 05:33:05 13.1 C 84 % 10.46 C
29 10-10-2011 05:45:05 13.1 C 85 % 10.64 C
30 10-10-2011 05:57:05 13.2 C 85 % 10.74 C
31 10-10-2011 06:09:05 13.2 C 86 % 10.91 C
32 10-10-2011 06:21:02 13.3 C 86 % 11.01 C
33 10-10-2011 06:33:02 13.3 C 86 % 11.01 C
34 10-10-2011 06:45:02 13.5 C 86 % 11.21 C
35 10-10-2011 06:57:02 13.7 C 86 % 11.4 C
36 10-10-2011 07:09:02 13.9 C 86 % 11.6 C
37 10-10-2011 07:21:02 13.8 C 86 % 11.5 C
38 10-10-2011 07:33:02 14.1 C 85 % 11.62 C
39 10-10-2011 07:45:01 14.1 C 85 % 11.62 C
40 10-10-2011 07:57:01 14.2 C 85 % 11.72 C
41 10-10-2011 08:09:01 14.1 C 86 % 11.8 C
42 10-10-2011 08:21:01 14.3 C 86 % 11.99 C
43 10-10-2011 08:33:02 14.5 C 86 % 12.19 C
44 10-10-2011 08:45:02 14.6 C 86 % 12.29 C
45 10-10-2011 08:57:02 14.8 C 86 % 12.48 C
46 10-10-2011 09:09:02 14.9 C 86 % 12.58 C
47 10-10-2011 09:21:01 15.3 C 86 % 12.97 C
48 10-10-2011 09:33:02 15.8 C 85 % 13.28 C
49 10-10-2011 09:45:02 16.5 C 82 % 13.42 C
50 10-10-2011 09:57:02 16.9 C 77 % 12.84 C
Sensor: Nr:Datum:Temp:Feuchte:Taupunkt:
Aussen-T/F 51 10-10-2011 10:09:02 17.4 C 74 % 12.72 C
52 10-10-2011 10:21:02 17.8 C 71 % 12.47 C
53 10-10-2011 10:33:02 18.1 C 67 % 11.88 C
54 10-10-2011 10:45:02 18 C 68 % 12.01 C
55 10-10-2011 10:57:02 18.2 C 68 % 12.2 C
56 10-10-2011 11:09:02 18.3 C 65 % 11.61 C
57 10-10-2011 11:21:02 18.5 C 65 % 11.8 C
58 10-10-2011 11:33:02 18.9 C 63 % 11.71 C
59 10-10-2011 11:45:02 18.9 C 62 % 11.47 C
60 10-10-2011 11:57:02 19.1 C 60 % 11.16 C
61 10-10-2011 12:09:02 19.4 C 59 % 11.19 C
62 10-10-2011 12:21:02 19.4 C 58 % 10.93 C
63 10-10-2011 12:33:02 19.6 C 57 % 10.86 C
64 10-10-2011 12:45:02 19.4 C 56 % 10.4 C
65 10-10-2011 12:57:02 19.6 C 56 % 10.59 C
66 10-10-2011 13:09:02 19.5 C 56 % 10.5 C
67 10-10-2011 13:21:02 19.8 C 55 % 10.51 C
68 10-10-2011 13:33:02 20.1 C 52 % 9.94 C
69 10-10-2011 13:45:02 20.6 C 52 % 10.41 C
70 10-10-2011 13:57:02 20.7 C 50 % 9.91 C
71 10-10-2011 14:09:01 20.6 C 49 % 9.52 C
72 10-10-2011 14:21:01 20.8 C 50 % 10 C
73 10-10-2011 14:33:02 20.9 C 48 % 9.49 C
74 10-10-2011 14:45:02 20.8 C 48 % 9.4 C
75 10-10-2011 14:57:02 20.8 C 48 % 9.4 C
Sensor: Nr:Datum:Temp:Feuchte:Taupunkt:
Aussen-T/F 76 10-10-2011 15:09:02 20.8 C 48 % 9.4 C
77 10-10-2011 15:21:01 20.7 C 49 % 9.61 C
78 10-10-2011 15:33:02 20.9 C 47 % 9.17 C
79 10-10-2011 15:45:02 21.1 C 45 % 8.71 C
80 10-10-2011 15:57:02 21.2 C 45 % 8.8 C
81 10-10-2011 16:09:02 20.9 C 46 % 8.86 C
82 10-10-2011 16:21:02 20.7 C 47 % 8.99 C
83 10-10-2011 16:33:02 21.6 C 45 % 9.17 C
84 10-10-2011 16:45:02 21.9 C 42 % 8.42 C
85 10-10-2011 16:57:02 22.4 C 40 % 8.15 C
86 10-10-2011 17:09:02 21.4 C 45 % 8.99 C
87 10-10-2011 17:21:02 20.9 C 46 % 8.86 C
88 10-10-2011 17:33:01 22 C 44 % 9.2 C
89 10-10-2011 17:45:02 21.3 C 47 % 9.54 C
90 10-10-2011 17:57:02 21 C 45 % 8.62 C
91 10-10-2011 18:09:01 20 C 48 % 8.67 C
92 10-10-2011 18:21:02 19.4 C 51 % 9.01 C
93 10-10-2011 18:33:02 18.8 C 54 % 9.3 C
94 10-10-2011 18:45:02 18.1 C 56 % 9.19 C
95 10-10-2011 18:57:02 18 C 57 % 9.36 C
96 10-10-2011 19:09:02 18 C 57 % 9.36 C
97 10-10-2011 19:21:02 17.9 C 58 % 9.53 C
98 10-10-2011 19:33:02 17.6 C 59 % 9.5 C
99 10-10-2011 19:45:02 17.7 C 60 % 9.84 C
100 10-10-2011 19:57:02 17.7 C 60 % 9.84 C
Sensor: Nr:Datum:Temp:Feuchte:Taupunkt:
Aussen-T/F 101 10-10-2011 20:09:02 17.7 C 60 % 9.84 C
102 10-10-2011 20:21:02 17.6 C 61 % 10 C
103 10-10-2011 20:33:02 17.5 C 62 % 10.15 C
104 10-10-2011 20:45:01 17.4 C 63 % 10.29 C
105 10-10-2011 20:57:01 17.3 C 64 % 10.43 C
106 10-10-2011 21:09:01 17.4 C 64 % 10.53 C
107 10-10-2011 21:21:02 17.3 C 65 % 10.66 C
108 10-10-2011 21:33:01 17.2 C 64 % 10.34 C
109 10-10-2011 21:45:02 17.3 C 64 % 10.43 C
110 10-10-2011 21:57:02 17.2 C 63 % 10.1 C
111 10-10-2011 22:09:02 17.1 C 62 % 9.77 C
112 10-10-2011 22:21:02 17 C 62 % 9.67 C
113 10-10-2011 22:33:02 17.1 C 61 % 9.53 C
114 10-10-2011 22:45:02 17.1 C 61 % 9.53 C
115 10-10-2011 22:57:02 16.9 C 63 % 9.82 C
116 10-10-2011 23:09:01 17 C 61 % 9.43 C
117 10-10-2011 23:21:02 16.9 C 62 % 9.58 C
118 10-10-2011 23:33:02 16.9 C 62 % 9.58 C
119 10-10-2011 23:45:01 16.8 C 63 % 9.72 C
120 10-10-2011 23:57:01 16.5 C 65 % 9.9 C
121 11-10-2011 00:09:02 16.5 C 65 % 9.9 C
122 11-10-2011 00:21:01 16.5 C 65 % 9.9 C
123 11-10-2011 00:33:01 16.9 C 62 % 9.58 C
124 11-10-2011 00:45:02 16.9 C 61 % 9.34 C
125 11-10-2011 00:57:03 16.9 C 59 % 8.84 C
Sensor: Nr:Datum:Temp:Feuchte:Taupunkt:
Aussen-T/F 126 11-10-2011 01:09:02 16.5 C 61 % 8.96 C
127 11-10-2011 01:21:02 16.5 C 62 % 9.2 C
128 11-10-2011 01:33:02 16.2 C 63 % 9.16 C
129 11-10-2011 01:45:01 16.3 C 63 % 9.25 C
130 11-10-2011 01:57:01 16.4 C 63 % 9.35 C
131 11-10-2011 02:09:02 16.4 C 63 % 9.35 C
132 11-10-2011 02:21:01 16.6 C 62 % 9.3 C
133 11-10-2011 02:33:01 16.8 C 62 % 9.49 C
134 11-10-2011 02:45:01 16.6 C 62 % 9.3 C
135 11-10-2011 02:57:01 16.5 C 62 % 9.2 C
136 11-10-2011 03:09:01 16.5 C 63 % 9.44 C
137 11-10-2011 03:21:02 16.4 C 63 % 9.35 C
138 11-10-2011 03:33:01 16.3 C 64 % 9.48 C
139 11-10-2011 03:45:01 16.2 C 65 % 9.62 C
140 11-10-2011 03:57:01 16.1 C 66 % 9.75 C
141 11-10-2011 04:09:02 16.1 C 67 % 9.98 C
142 11-10-2011 04:21:01 16 C 68 % 10.1 C
143 11-10-2011 04:33:01 15.8 C 70 % 10.34 C
144 11-10-2011 04:45:01 16 C 68 % 10.1 C
145 11-10-2011 04:57:01 16 C 68 % 10.1 C
146 11-10-2011 05:09:01 15.8 C 69 % 10.13 C
147 11-10-2011 05:21:02 15.8 C 70 % 10.34 C
148 11-10-2011 05:33:01 15.9 C 69 % 10.23 C
149 11-10-2011 05:45:02 16 C 68 % 10.1 C
150 11-10-2011 05:57:02 16 C 67 % 9.88 C
Sensor: Nr:Datum:Temp:Feuchte:Taupunkt:
Aussen-T/F 151 11-10-2011 06:09:01 15.8 C 67 % 9.69 C
152 11-10-2011 06:21:02 15.7 C 67 % 9.6 C
153 11-10-2011 06:33:01 15.6 C 66 % 9.28 C
154 11-10-2011 06:45:02 15.5 C 66 % 9.18 C
155 11-10-2011 06:57:02 15.5 C 65 % 8.96 C
156 11-10-2011 07:09:01 15.4 C 66 % 9.09 C
157 11-10-2011 07:21:01 15.4 C 65 % 8.86 C
158 11-10-2011 07:33:02 15.6 C 64 % 8.82 C
159 11-10-2011 07:45:01 15.6 C 64 % 8.82 C
160 11-10-2011 07:57:01 15.6 C 64 % 8.82 C
161 11-10-2011 08:09:02 15.6 C 63 % 8.59 C
162 11-10-2011 08:21:01 15.7 C 63 % 8.68 C
163 11-10-2011 08:33:01 15.8 C 63 % 8.78 C
164 11-10-2011 08:45:01 15.7 C 63 % 8.68 C
165 11-10-2011 08:57:01 15.8 C 63 % 8.78 C
166 11-10-2011 09:09:01 15.8 C 63 % 8.78 C
167 11-10-2011 09:21:02 15.9 C 63 % 8.87 C
168 11-10-2011 09:33:01 15.8 C 63 % 8.78 C
169 11-10-2011 09:45:02 15.8 C 63 % 8.78 C
170 11-10-2011 09:57:02 15.9 C 62 % 8.64 C
171 11-10-2011 10:09:01 16 C 61 % 8.49 C
172 11-10-2011 10:21:02 16 C 61 % 8.49 C
173 11-10-2011 10:33:01 16 C 61 % 8.49 C
174 11-10-2011 10:45:02 16 C 61 % 8.49 C
175 11-10-2011 10:57:02 15.8 C 63 % 8.78 C
Sensor: Nr:Datum:Temp:Feuchte:Taupunkt:
Aussen-T/F 176 11-10-2011 11:09:01 15.9 C 62 % 8.64 C
177 11-10-2011 11:21:01 15.9 C 62 % 8.64 C
178 11-10-2011 11:33:02 16 C 62 % 8.73 C
179 11-10-2011 11:45:01 16 C 62 % 8.73 C
180 11-10-2011 11:57:01 15.9 C 63 % 8.87 C
181 11-10-2011 12:09:02 16 C 62 % 8.73 C
182 11-10-2011 12:21:01 16 C 62 % 8.73 C
183 11-10-2011 12:33:01 16.1 C 62 % 8.82 C
184 11-10-2011 12:45:01 16.1 C 62 % 8.82 C
185 11-10-2011 12:57:01 16.1 C 62 % 8.82 C
186 11-10-2011 13:09:02 16.1 C 63 % 9.06 C
187 11-10-2011 13:21:01 16.1 C 63 % 9.06 C
188 11-10-2011 13:33:01 16 C 64 % 9.2 C
189 11-10-2011 13:45:01 16.1 C 64 % 9.29 C
190 11-10-2011 13:57:01 16 C 65 % 9.43 C
191 11-10-2011 14:09:01 16 C 65 % 9.43 C
192 11-10-2011 14:21:02 16.2 C 64 % 9.39 C
193 11-10-2011 14:33:01 16.4 C 63 % 9.35 C
194 11-10-2011 14:45:02 16.7 C 63 % 9.63 C
195 11-10-2011 14:57:02 16.8 C 62 % 9.49 C
196 11-10-2011 15:09:01 17.2 C 60 % 9.37 C
197 11-10-2011 15:21:01 17.2 C 60 % 9.37 C
198 11-10-2011 15:33:01 17.2 C 60 % 9.37 C
199 11-10-2011 15:45:01 17.2 C 61 % 9.62 C
200 11-10-2011 15:57:01 17.4 C 60 % 9.56 C
Sensor: Nr:Datum:Temp:Feuchte:Taupunkt:
Aussen-T/F 201 11-10-2011 16:09:01 17.6 C 59 % 9.5 C
202 11-10-2011 16:21:01 17.8 C 58 % 9.43 C
203 11-10-2011 16:33:02 17.8 C 59 % 9.69 C
204 11-10-2011 16:45:01 17.6 C 59 % 9.5 C
205 11-10-2011 16:57:01 17.4 C 60 % 9.56 C
206 11-10-2011 17:09:02 17.5 C 60 % 9.66 C
207 11-10-2011 17:21:01 17.6 C 59 % 9.5 C
208 11-10-2011 17:33:01 17.6 C 58 % 9.25 C
209 11-10-2011 17:45:01 17.5 C 59 % 9.41 C
210 11-10-2011 17:57:01 17.5 C 59 % 9.41 C
211 11-10-2011 18:09:01 17.5 C 58 % 9.15 C
212 11-10-2011 18:21:02 17.3 C 59 % 9.22 C
213 11-10-2011 18:33:01 17.3 C 59 % 9.22 C
214 11-10-2011 18:45:02 17.1 C 59 % 9.03 C
215 11-10-2011 18:57:02 17 C 60 % 9.19 C
216 11-10-2011 19:09:01 16.8 C 62 % 9.49 C
217 11-10-2011 19:21:02 16.8 C 62 % 9.49 C
218 11-10-2011 19:33:01 17 C 60 % 9.19 C
219 11-10-2011 19:45:02 17 C 59 % 8.94 C
220 11-10-2011 19:57:02 16.9 C 60 % 9.09 C
221 11-10-2011 20:09:01 16.8 C 60 % 9 C
222 11-10-2011 20:21:01 16.7 C 62 % 9.39 C
223 11-10-2011 20:33:02 16.8 C 62 % 9.49 C
224 11-10-2011 20:45:01 16.6 C 62 % 9.3 C
225 11-10-2011 20:57:01 16.6 C 61 % 9.06 C
Sensor: Nr:Datum:Temp:Feuchte:Taupunkt:
Aussen-T/F 226 11-10-2011 21:09:02 16.6 C 61 % 9.06 C
227 11-10-2011 21:21:01 16.6 C 60 % 8.81 C
228 11-10-2011 21:33:01 16.5 C 60 % 8.72 C
229 11-10-2011 21:45:01 16.3 C 61 % 8.77 C
230 11-10-2011 21:57:01 16.5 C 61 % 8.96 C
231 11-10-2011 22:09:02 16.5 C 60 % 8.72 C
232 11-10-2011 22:21:01 16.4 C 60 % 8.62 C
233 11-10-2011 22:33:01 16.3 C 61 % 8.77 C
234 11-10-2011 22:45:01 16.2 C 62 % 8.92 C
235 11-10-2011 22:57:01 16.1 C 62 % 8.82 C
236 11-10-2011 23:09:01 16.1 C 62 % 8.82 C
237 11-10-2011 23:21:02 16 C 63 % 8.97 C
238 11-10-2011 23:33:01 16 C 63 % 8.97 C
239 11-10-2011 23:45:02 16 C 63 % 8.97 C
240 11-10-2011 23:57:02 16 C 63 % 8.97 C
241 12-10-2011 00:09:01 15.9 C 64 % 9.11 C
242 12-10-2011 00:21:01 15.9 C 64 % 9.11 C
243 12-10-2011 00:33:02 15.8 C 65 % 9.24 C
244 12-10-2011 00:45:01 15.8 C 65 % 9.24 C
245 12-10-2011 00:57:01 15.8 C 65 % 9.24 C
246 12-10-2011 01:09:02 15.8 C 65 % 9.24 C
247 12-10-2011 01:21:01 15.8 C 65 % 9.24 C
248 12-10-2011 01:33:01 15.8 C 65 % 9.24 C
249 12-10-2011 01:45:01 15.8 C 65 % 9.24 C
250 12-10-2011 01:57:01 15.7 C 65 % 9.15 C
Sensor: Nr:Datum:Temp:Feuchte:Taupunkt:
Aussen-T/F 251 12-10-2011 02:09:01 15.7 C 66 % 9.37 C
252 12-10-2011 02:21:01 15.7 C 66 % 9.37 C
253 12-10-2011 02:33:01 15.6 C 66 % 9.28 C
254 12-10-2011 02:46:03 15.7 C 66 % 9.37 C
255 12-10-2011 02:58:03 15.6 C 67 % 9.5 C
256 12-10-2011 03:10:03 15.5 C 67 % 9.41 C
257 12-10-2011 03:22:03 15.4 C 67 % 9.31 C
258 12-10-2011 03:34:01 15.4 C 67 % 9.31 C
259 12-10-2011 03:46:01 15.4 C 67 % 9.31 C
260 12-10-2011 03:58:01 15.3 C 68 % 9.43 C
261 12-10-2011 04:10:02 15.5 C 67 % 9.41 C
262 12-10-2011 04:22:01 15.3 C 67 % 9.21 C
263 12-10-2011 04:34:01 15.2 C 68 % 9.34 C
264 12-10-2011 04:46:01 15.2 C 68 % 9.34 C
265 12-10-2011 04:58:01 15.3 C 68 % 9.43 C
266 12-10-2011 05:10:01 15.2 C 68 % 9.34 C
267 12-10-2011 05:22:02 15.3 C 68 % 9.43 C
268 12-10-2011 05:34:01 15.4 C 67 % 9.31 C
269 12-10-2011 05:46:02 15.3 C 68 % 9.43 C
270 12-10-2011 05:58:02 15.2 C 68 % 9.34 C
271 12-10-2011 06:10:02 15.4 C 68 % 9.53 C
272 12-10-2011 06:22:02 15.2 C 69 % 9.56 C
273 12-10-2011 06:34:03 15.2 C 69 % 9.56 C
274 12-10-2011 06:46:02 15.1 C 69 % 9.46 C
275 12-10-2011 06:58:02 15.1 C 69 % 9.46 C
Sensor: Nr:Datum:Temp:Feuchte:Taupunkt:
Aussen-T/F 276 12-10-2011 07:10:01 15 C 70 % 9.58 C
277 12-10-2011 07:22:01 15.1 C 70 % 9.67 C
278 12-10-2011 07:34:02 15 C 70 % 9.58 C
279 12-10-2011 07:46:02 14.9 C 72 % 9.9 C
280 12-10-2011 07:58:02 14.8 C 73 % 10.01 C
281 12-10-2011 08:10:02 15 C 71 % 9.79 C
282 12-10-2011 08:22:02 15 C 71 % 9.79 C
283 12-10-2011 08:34:02 15.1 C 71 % 9.89 C
284 12-10-2011 08:46:02 15.1 C 71 % 9.89 C
285 12-10-2011 08:58:02 15.1 C 71 % 9.89 C
286 12-10-2011 09:10:02 15.2 C 71 % 9.98 C
287 12-10-2011 09:22:02 15.5 C 70 % 10.06 C
288 12-10-2011 09:34:02 15.5 C 69 % 9.84 C
289 12-10-2011 09:46:02 15.6 C 69 % 9.94 C
290 12-10-2011 09:58:02 15.8 C 68 % 9.91 C
291 12-10-2011 10:10:02 15.9 C 68 % 10.01 C
292 12-10-2011 10:22:02 16.4 C 65 % 9.81 C
293 12-10-2011 10:34:01 16.6 C 64 % 9.77 C
294 12-10-2011 10:46:02 16.8 C 64 % 9.96 C
295 12-10-2011 10:58:02 16.9 C 63 % 9.82 C
296 12-10-2011 11:10:01 16.7 C 64 % 9.86 C
297 12-10-2011 11:22:02 17 C 62 % 9.67 C
298 12-10-2011 11:34:02 17.6 C 60 % 9.75 C
299 12-10-2011 11:46:02 17.8 C 60 % 9.94 C
300 12-10-2011 11:58:02 17.8 C 59 % 9.69 C
Sensor: Nr:Datum:Temp:Feuchte:Taupunkt:
Aussen-T/F 301 12-10-2011 12:10:02 17.2 C 61 % 9.62 C
302 12-10-2011 12:22:02 17.1 C 61 % 9.53 C
303 12-10-2011 12:34:02 17.2 C 61 % 9.62 C
304 12-10-2011 12:46:02 17.2 C 60 % 9.37 C
305 12-10-2011 12:58:02 17 C 62 % 9.67 C
306 12-10-2011 13:10:02 17.2 C 61 % 9.62 C
307 12-10-2011 13:22:02 17.1 C 61 % 9.53 C
308 12-10-2011 13:34:02 17.3 C 61 % 9.71 C
309 12-10-2011 13:46:02 16.9 C 63 % 9.82 C
310 12-10-2011 13:58:02 17 C 62 % 9.67 C
311 12-10-2011 14:10:02 17.1 C 62 % 9.77 C
312 12-10-2011 14:22:03 17 C 61 % 9.43 C
313 12-10-2011 14:34:02 17.1 C 61 % 9.53 C
314 12-10-2011 14:46:02 17.1 C 61 % 9.53 C
315 12-10-2011 14:58:02 17.1 C 60 % 9.28 C
316 12-10-2011 15:10:02 17.2 C 60 % 9.37 C
317 12-10-2011 15:22:02 17 C 60 % 9.19 C
318 12-10-2011 15:34:01 16.9 C 62 % 9.58 C
319 12-10-2011 15:46:02 16.9 C 62 % 9.58 C
320 12-10-2011 15:58:03 17 C 61 % 9.43 C
321 12-10-2011 16:10:01 16.9 C 61 % 9.34 C
322 12-10-2011 16:22:01 17 C 61 % 9.43 C
323 12-10-2011 16:34:02 16.9 C 61 % 9.34 C
324 12-10-2011 16:46:02 16.8 C 61 % 9.24 C
325 12-10-2011 16:58:02 16.8 C 62 % 9.49 C
Sensor: Nr:Datum:Temp:Feuchte:Taupunkt:
Aussen-T/F 326 12-10-2011 17:10:02 16.8 C 61 % 9.24 C
327 12-10-2011 17:22:02 16.7 C 61 % 9.15 C
328 12-10-2011 17:34:02 16.8 C 61 % 9.24 C
329 12-10-2011 17:46:02 16.5 C 61 % 8.96 C
330 12-10-2011 17:58:02 16.5 C 61 % 8.96 C
331 12-10-2011 18:10:02 16.5 C 61 % 8.96 C
332 12-10-2011 18:22:02 16.5 C 60 % 8.72 C
333 12-10-2011 18:34:02 16.5 C 60 % 8.72 C
334 12-10-2011 18:46:02 16.3 C 60 % 8.53 C
335 12-10-2011 18:58:02 16.2 C 60 % 8.43 C
336 12-10-2011 19:10:02 16.2 C 59 % 8.19 C
337 12-10-2011 19:22:02 16.1 C 59 % 8.09 C
338 12-10-2011 19:34:02 16 C 60 % 8.25 C
339 12-10-2011 19:46:02 15.9 C 61 % 8.4 C
340 12-10-2011 19:58:02 15.7 C 62 % 8.45 C
341 12-10-2011 20:10:02 15.7 C 63 % 8.68 C
342 12-10-2011 20:22:02 15.8 C 61 % 8.3 C
343 12-10-2011 20:34:02 15.8 C 62 % 8.54 C
344 12-10-2011 20:46:01 15.7 C 62 % 8.45 C
345 12-10-2011 20:58:01 15.2 C 63 % 8.21 C
346 12-10-2011 21:10:02 14.1 C 73 % 9.34 C
347 12-10-2011 21:22:01 13.6 C 78 % 9.84 C
348 12-10-2011 21:34:02 13.3 C 80 % 9.93 C
349 12-10-2011 21:46:02 13.4 C 82 % 10.39 C
350 12-10-2011 21:58:02 13.1 C 83 % 10.28 C
Sensor: Nr:Datum:Temp:Feuchte:Taupunkt:
Aussen-T/F 351 12-10-2011 22:11:02 13.3 C 83 % 10.48 C
352 12-10-2011 22:23:02 13.3 C 83 % 10.48 C
353 12-10-2011 22:35:02 13.2 C 84 % 10.56 C
354 12-10-2011 22:47:02 13.4 C 84 % 10.75 C
355 12-10-2011 22:59:02 13.3 C 85 % 10.83 C
356 12-10-2011 23:11:03 13.3 C 86 % 11.01 C
357 12-10-2011 23:23:03 13.3 C 86 % 11.01 C
358 12-10-2011 23:35:03 13.3 C 86 % 11.01 C
359 12-10-2011 23:47:03 13.2 C 87 % 11.09 C
360 12-10-2011 23:59:03 13.2 C 87 % 11.09 C
361 13-10-2011 00:11:03 12.9 C 87 % 10.79 C
362 13-10-2011 00:23:03 12.5 C 87 % 10.4 C
363 13-10-2011 00:35:03 11.8 C 87 % 9.71 C
364 13-10-2011 00:47:03 11.1 C 86 % 8.85 C
365 13-10-2011 00:59:03 10.7 C 86 % 8.46 C
366 13-10-2011 01:11:03 10.8 C 86 % 8.56 C
367 13-10-2011 01:23:03 10.7 C 87 % 8.63 C
368 13-10-2011 01:35:03 10.5 C 86 % 8.26 C
369 13-10-2011 01:47:03 10.2 C 86 % 7.97 C
370 13-10-2011 01:59:03 10 C 86 % 7.77 C
371 13-10-2011 02:11:03 9.9 C 87 % 7.84 C
372 13-10-2011 02:23:03 9.6 C 87 % 7.55 C
373 13-10-2011 02:35:03 9.5 C 87 % 7.45 C
374 13-10-2011 02:47:03 9.4 C 87 % 7.35 C
375 13-10-2011 02:59:03 9.5 C 87 % 7.45 C
Sensor: Nr:Datum:Temp:Feuchte:Taupunkt:
Aussen-T/F 376 13-10-2011 03:11:03 9.5 C 87 % 7.45 C
377 13-10-2011 03:23:04 9.5 C 87 % 7.45 C
378 13-10-2011 03:35:04 9.4 C 88 % 7.52 C
379 13-10-2011 03:47:04 9.2 C 87 % 7.15 C
380 13-10-2011 03:59:04 8.9 C 88 % 7.02 C
381 13-10-2011 04:11:04 8.6 C 88 % 6.73 C
382 13-10-2011 04:23:04 8.5 C 88 % 6.63 C
383 13-10-2011 04:35:04 8.4 C 88 % 6.53 C
384 13-10-2011 04:47:04 8.5 C 89 % 6.79 C
385 13-10-2011 04:59:04 8.5 C 89 % 6.79 C
386 13-10-2011 05:11:04 8.5 C 89 % 6.79 C
387 13-10-2011 05:23:04 8.4 C 89 % 6.7 C
388 13-10-2011 05:35:04 8.1 C 89 % 6.4 C
389 13-10-2011 05:47:04 8 C 89 % 6.3 C
390 13-10-2011 05:59:04 8.1 C 89 % 6.4 C
391 13-10-2011 06:11:04 8.2 C 89 % 6.5 C
392 13-10-2011 06:23:04 8.2 C 90 % 6.66 C
393 13-10-2011 06:35:04 8.2 C 90 % 6.66 C
394 13-10-2011 06:47:04 8.3 C 90 % 6.76 C
395 13-10-2011 06:59:04 8.4 C 90 % 6.86 C
396 13-10-2011 07:11:02 8.4 C 90 % 6.86 C
397 13-10-2011 07:23:02 8.4 C 90 % 6.86 C
398 13-10-2011 07:35:03 8.4 C 90 % 6.86 C
399 13-10-2011 07:47:02 8.3 C 90 % 6.76 C
400 13-10-2011 07:59:02 8.2 C 90 % 6.66 C
Sensor: Nr:Datum:Temp:Feuchte:Taupunkt:
Aussen-T/F 401 13-10-2011 08:11:02 8.2 C 90 % 6.66 C
402 13-10-2011 08:23:02 8.4 C 90 % 6.86 C
403 13-10-2011 08:35:02 8.6 C 90 % 7.06 C
404 13-10-2011 08:47:02 8.7 C 90 % 7.15 C
405 13-10-2011 08:59:02 9 C 89 % 7.29 C
406 13-10-2011 09:11:02 9.3 C 90 % 7.75 C
407 13-10-2011 09:23:02 9 C 89 % 7.29 C
408 13-10-2011 09:35:03 9.2 C 88 % 7.32 C
409 13-10-2011 09:47:02 9.3 C 87 % 7.25 C
410 13-10-2011 09:59:02 9.5 C 85 % 7.11 C
411 13-10-2011 10:11:01 9.7 C 83 % 6.96 C
412 13-10-2011 10:23:02 9.9 C 81 % 6.8 C
413 13-10-2011 10:35:02 10.4 C 77 % 6.55 C
414 13-10-2011 10:47:01 10.6 C 74 % 6.17 C
415 13-10-2011 10:59:01 10.3 C 73 % 5.68 C
416 13-10-2011 11:11:01 10.3 C 73 % 5.68 C
417 13-10-2011 11:23:01 10 C 75 % 5.78 C
418 13-10-2011 11:35:02 10.5 C 73 % 5.87 C
419 13-10-2011 11:47:01 11 C 70 % 5.75 C
420 13-10-2011 11:59:01 11.1 C 69 % 5.64 C
421 13-10-2011 12:11:02 11.1 C 68 % 5.43 C
422 13-10-2011 12:23:01 11.2 C 67 % 5.31 C
423 13-10-2011 12:35:02 12 C 62 % 4.96 C
424 13-10-2011 12:47:01 13.1 C 56 % 4.53 C
425 13-10-2011 12:59:01 13.8 C 53 % 4.4 C
Sensor: Nr:Datum:Temp:Feuchte:Taupunkt:
Aussen-T/F 426 13-10-2011 13:11:02 14.2 C 51 % 4.22 C
427 13-10-2011 13:23:02 13.5 C 54 % 4.39 C
428 13-10-2011 13:35:01 14.4 C 51 % 4.4 C
429 13-10-2011 13:47:02 13.4 C 54 % 4.29 C
430 13-10-2011 13:59:02 13.1 C 52 % 3.48 C
431 13-10-2011 14:11:01 13.1 C 54 % 4.01 C
432 13-10-2011 14:23:02 13.5 C 50 % 3.29 C
433 13-10-2011 14:35:01 13.4 C 45 % 1.72 C
434 13-10-2011 14:47:02 14 C 41 % 0.97 C
435 13-10-2011 14:59:02 14.2 C 42 % 1.49 C
436 13-10-2011 15:11:02 14.3 C 43 % 1.91 C
437 13-10-2011 15:23:02 14.4 C 45 % 2.63 C
438 13-10-2011 15:35:03 13.9 C 42 % 1.22 C
439 13-10-2011 15:47:02 14.5 C 40 % 1.08 C
440 13-10-2011 15:59:02 14.8 C 38 % 0.64 C
441 13-10-2011 16:11:02 14.1 C 41 % 1.06 C
442 13-10-2011 16:23:01 13.2 C 47 % 2.15 C
443 13-10-2011 16:35:02 12.8 C 55 % 4 C
444 13-10-2011 16:47:02 16.5 C 41 % 3.22 C
445 13-10-2011 16:59:02 18.6 C 38 % 4.02 C
446 13-10-2011 17:11:02 20.1 C 32 % 2.91 C
447 13-10-2011 17:23:01 18.7 C 30 % 0.79 C
448 13-10-2011 17:35:02 20.3 C 28 % 1.21 C
449 13-10-2011 17:47:02 18 C 36 % 2.72 C
450 13-10-2011 17:59:02 13.8 C 46 % 2.4 C
Sensor: Nr:Datum:Temp:Feuchte:Taupunkt:
Aussen-T/F 451 13-10-2011 18:11:02 11.7 C 54 % 2.71 C
452 13-10-2011 18:23:02 10.5 C 60 % 3.08 C
453 13-10-2011 18:35:02 9.5 C 64 % 3.04 C
454 13-10-2011 18:47:02 8.9 C 66 % 2.9 C
455 13-10-2011 18:59:02 8.6 C 67 % 2.83 C
456 13-10-2011 19:11:02 7.7 C 69 % 2.38 C
457 13-10-2011 19:23:02 7.8 C 72 % 3.08 C
458 13-10-2011 19:35:01 8.2 C 68 % 2.66 C
459 13-10-2011 19:47:01 7.6 C 72 % 2.88 C
460 13-10-2011 19:59:01 7.5 C 73 % 2.98 C
461 13-10-2011 20:11:01 7.9 C 74 % 3.56 C
462 13-10-2011 20:23:01 8.2 C 73 % 3.66 C
463 13-10-2011 20:35:02 8.4 C 74 % 4.04 C
464 13-10-2011 20:47:02 8.2 C 73 % 3.66 C
465 13-10-2011 20:59:02 8.3 C 74 % 3.95 C
466 13-10-2011 21:11:02 7.8 C 75 % 3.65 C
467 13-10-2011 21:23:01 8.1 C 73 % 3.56 C
468 13-10-2011 21:35:02 6.7 C 73 % 2.21 C
469 13-10-2011 21:47:02 6.5 C 76 % 2.58 C
470 13-10-2011 21:59:02 6.3 C 78 % 2.75 C
471 13-10-2011 22:11:02 6.5 C 79 % 3.13 C
472 13-10-2011 22:23:02 6.1 C 80 % 2.92 C
473 13-10-2011 22:35:02 5.7 C 81 % 2.7 C
474 13-10-2011 22:47:02 5.3 C 82 % 2.48 C
475 13-10-2011 22:59:02 4.8 C 83 % 2.16 C
Sensor: Nr:Datum:Temp:Feuchte:Taupunkt:
Aussen-T/F 476 13-10-2011 23:11:02 5.2 C 84 % 2.72 C
477 13-10-2011 23:23:02 4.8 C 86 % 2.66 C
478 13-10-2011 23:35:02 4.6 C 87 % 2.63 C
479 13-10-2011 23:47:02 4.6 C 87 % 2.63 C
480 13-10-2011 23:59:02 4.2 C 87 % 2.23 C
481 14-10-2011 00:11:02 3.8 C 88 % 2 C
482 14-10-2011 00:23:02 3.7 C 88 % 1.9 C
483 14-10-2011 00:35:02 4.1 C 88 % 2.3 C
484 14-10-2011 00:47:02 3.6 C 89 % 1.96 C
485 14-10-2011 00:59:02 3.8 C 89 % 2.16 C
486 14-10-2011 01:11:02 3.4 C 89 % 1.76 C
487 14-10-2011 01:23:02 3.3 C 89 % 1.67 C
488 14-10-2011 01:35:01 3.4 C 89 % 1.76 C
489 14-10-2011 01:47:02 3.3 C 89 % 1.67 C
490 14-10-2011 01:59:03 3.4 C 90 % 1.92 C
491 14-10-2011 02:11:01 3.9 C 90 % 2.41 C
492 14-10-2011 02:23:02 3.4 C 90 % 1.92 C
493 14-10-2011 02:35:02 3.3 C 90 % 1.82 C
494 14-10-2011 02:48:04 3 C 90 % 1.52 C
495 14-10-2011 03:00:04 2.9 C 91 % 1.58 C
496 14-10-2011 03:12:04 2.6 C 91 % 1.28 C
497 14-10-2011 03:24:04 2.6 C 92 % 1.43 C
498 14-10-2011 03:36:02 2.5 C 91 % 1.18 C
499 14-10-2011 03:48:02 2.5 C 91 % 1.18 C
500 14-10-2011 04:00:02 2.2 C 91 % 0.89 C
Sensor: Nr:Datum:Temp:Feuchte:Taupunkt:
Aussen-T/F 501 14-10-2011 04:12:02 2.3 C 91 % 0.99 C
502 14-10-2011 04:24:02 2.2 C 91 % 0.89 C
503 14-10-2011 04:36:02 2.3 C 91 % 0.99 C
504 14-10-2011 04:48:01 2.3 C 91 % 0.99 C
505 14-10-2011 05:00:01 2 C 91 % 0.69 C
506 14-10-2011 05:12:02 2.2 C 91 % 0.89 C
507 14-10-2011 05:24:01 1.9 C 92 % 0.74 C
508 14-10-2011 05:36:02 1.9 C 92 % 0.74 C
509 14-10-2011 05:48:01 1.9 C 92 % 0.74 C
510 14-10-2011 06:00:01 1.5 C 92 % 0.35 C
511 14-10-2011 06:12:02 1.2 C 91 % -0.1 C
512 14-10-2011 06:24:02 1.7 C 92 % 0.54 C
513 14-10-2011 06:36:01 2.4 C 92 % 1.24 C
514 14-10-2011 06:48:02 2.5 C 92 % 1.34 C
515 14-10-2011 07:00:02 2.6 C 92 % 1.43 C
516 14-10-2011 07:12:01 2.5 C 92 % 1.34 C
517 14-10-2011 07:24:02 2.3 C 92 % 1.14 C
518 14-10-2011 07:36:01 3 C 92 % 1.83 C
519 14-10-2011 07:48:02 3.3 C 92 % 2.13 C
520 14-10-2011 08:00:02 3.6 C 93 % 2.58 C
521 14-10-2011 08:12:02 3.8 C 93 % 2.77 C
522 14-10-2011 08:24:02 3.7 C 93 % 2.68 C
523 14-10-2011 08:36:02 4 C 92 % 2.82 C
524 14-10-2011 08:48:02 4.2 C 93 % 3.17 C
525 14-10-2011 09:00:02 4.4 C 93 % 3.37 C
Sensor: Nr:Datum:Temp:Feuchte:Taupunkt:
Aussen-T/F 526 14-10-2011 09:12:03 4.2 C 93 % 3.17 C
527 14-10-2011 09:24:02 4.3 C 93 % 3.27 C
528 14-10-2011 09:36:02 4.3 C 93 % 3.27 C
529 14-10-2011 09:48:02 4.4 C 93 % 3.37 C
530 14-10-2011 10:00:02 4.5 C 93 % 3.47 C
531 14-10-2011 10:12:02 4.8 C 93 % 3.77 C
532 14-10-2011 10:24:02 5.4 C 93 % 4.36 C
533 14-10-2011 10:36:02 5.4 C 92 % 4.21 C
534 14-10-2011 10:48:02 5.1 C 92 % 3.91 C
535 14-10-2011 11:00:02 5.1 C 91 % 3.76 C
536 14-10-2011 11:12:02 4.9 C 92 % 3.71 C
537 14-10-2011 11:24:02 5.4 C 91 % 4.05 C
538 14-10-2011 11:36:02 5.9 C 92 % 4.7 C
539 14-10-2011 11:48:02 6.2 C 91 % 4.84 C
540 14-10-2011 12:00:02 6.7 C 91 % 5.34 C
541 14-10-2011 12:12:02 7 C 91 % 5.63 C
542 14-10-2011 12:24:02 7.4 C 91 % 6.03 C
543 14-10-2011 12:36:01 8.4 C 90 % 6.86 C
544 14-10-2011 12:48:02 9.3 C 86 % 7.08 C
545 14-10-2011 13:00:02 9 C 81 % 5.92 C
546 14-10-2011 13:12:01 10.2 C 67 % 4.36 C
547 14-10-2011 13:24:01 10.9 C 61 % 3.69 C
548 14-10-2011 13:36:02 12.7 C 56 % 4.16 C
549 14-10-2011 13:48:02 11.7 C 54 % 2.71 C
550 14-10-2011 14:00:02 11.6 C 52 % 2.09 C
Sensor: Nr:Datum:Temp:Feuchte:Taupunkt:
Aussen-T/F 551 14-10-2011 14:12:02 10.9 C 55 % 2.23 C
552 14-10-2011 14:24:01 11 C 48 % 0.43 C
553 14-10-2011 14:36:02 11 C 50 % 0.99 C
554 14-10-2011 14:48:02 11.2 C 49 % 0.9 C
555 14-10-2011 15:00:02 11.8 C 45 % 0.27 C
556 14-10-2011 15:12:02 11.8 C 45 % 0.27 C
557 14-10-2011 15:24:01 12.7 C 44 % 0.78 C
558 14-10-2011 15:36:02 13 C 39 % -0.61 C
559 14-10-2011 15:48:01 13.1 C 40 % -0.18 C
560 14-10-2011 16:00:01 13 C 40 % -0.27 C
561 14-10-2011 16:12:02 13.1 C 40 % -0.18 C
562 14-10-2011 16:24:02 13.1 C 41 % 0.16 C
563 14-10-2011 16:36:01 13.2 C 43 % 0.91 C
564 14-10-2011 16:48:02 14.3 C 41 % 1.24 C
565 14-10-2011 17:00:02 14 C 45 % 2.27 C
566 14-10-2011 17:12:01 13.7 C 41 % 0.7 C
567 14-10-2011 17:24:02 15 C 40 % 1.53 C
568 14-10-2011 17:36:02 13.7 C 42 % 1.04 C
569 14-10-2011 17:48:02 14.5 C 43 % 2.09 C
570 14-10-2011 18:00:02 14.3 C 41 % 1.24 C
571 14-10-2011 18:12:03 11.3 C 52 % 1.81 C
572 14-10-2011 18:24:02 9.6 C 59 % 1.99 C
573 14-10-2011 18:36:02 8.5 C 63 % 1.87 C
574 14-10-2011 18:48:01 7.9 C 67 % 2.16 C
575 14-10-2011 19:00:01 7.5 C 70 % 2.39 C
Sensor: Nr:Datum:Temp:Feuchte:Taupunkt:
Aussen-T/F 576 14-10-2011 19:12:02 7 C 73 % 2.5 C
577 14-10-2011 19:24:01 6.5 C 75 % 2.4 C
578 14-10-2011 19:36:01 6.4 C 75 % 2.3 C
579 14-10-2011 19:48:01 6.2 C 76 % 2.29 C
580 14-10-2011 20:00:01 5.9 C 77 % 2.19 C
581 14-10-2011 20:12:01 5.6 C 79 % 2.25 C
582 14-10-2011 20:24:02 5.3 C 80 % 2.14 C
583 14-10-2011 20:36:01 5.4 C 82 % 2.58 C
584 14-10-2011 20:48:03 5.5 C 82 % 2.68 C
585 14-10-2011 21:00:03 5.2 C 83 % 2.56 C
586 14-10-2011 21:12:02 5.4 C 84 % 2.92 C
587 14-10-2011 21:24:02 5.1 C 83 % 2.46 C
588 14-10-2011 21:36:02 5 C 84 % 2.53 C
589 14-10-2011 21:48:02 4.8 C 85 % 2.5 C
590 14-10-2011 22:00:02 4.7 C 86 % 2.56 C
591 14-10-2011 22:13:02 4.6 C 86 % 2.47 C
592 14-10-2011 22:25:02 4.8 C 87 % 2.82 C
593 14-10-2011 22:37:02 4.3 C 87 % 2.33 C
594 14-10-2011 22:49:02 4.4 C 87 % 2.43 C
595 14-10-2011 23:01:03 4.3 C 87 % 2.33 C
596 14-10-2011 23:13:03 4.3 C 88 % 2.49 C
597 14-10-2011 23:25:03 4.1 C 88 % 2.3 C
598 14-10-2011 23:37:03 4 C 88 % 2.2 C
599 14-10-2011 23:49:03 3.8 C 89 % 2.16 C
600 15-10-2011 00:01:03 3.8 C 89 % 2.16 C
Sensor: Nr:Datum:Temp:Feuchte:Taupunkt:
Aussen-T/F 601 15-10-2011 00:13:03 3.5 C 90 % 2.02 C
602 15-10-2011 00:25:03 3.5 C 90 % 2.02 C
603 15-10-2011 00:37:03 3.2 C 90 % 1.72 C
604 15-10-2011 00:49:03 3.2 C 90 % 1.72 C
605 15-10-2011 01:01:03 3.1 C 90 % 1.62 C
606 15-10-2011 01:13:03 2.9 C 91 % 1.58 C
607 15-10-2011 01:25:03 2.9 C 91 % 1.58 C
608 15-10-2011 01:37:03 2.7 C 91 % 1.38 C
609 15-10-2011 01:49:03 2.7 C 91 % 1.38 C
610 15-10-2011 02:01:03 2.7 C 91 % 1.38 C
611 15-10-2011 02:13:03 2.6 C 91 % 1.28 C
612 15-10-2011 02:25:03 2.3 C 91 % 0.99 C
613 15-10-2011 02:37:03 2.5 C 92 % 1.34 C
614 15-10-2011 02:49:03 2.5 C 92 % 1.34 C
615 15-10-2011 03:01:03 2.5 C 92 % 1.34 C
616 15-10-2011 03:13:04 2.3 C 92 % 1.14 C
617 15-10-2011 03:25:04 1.7 C 92 % 0.54 C
618 15-10-2011 03:37:04 1.5 C 92 % 0.35 C
619 15-10-2011 03:49:04 1.6 C 92 % 0.44 C
620 15-10-2011 04:01:04 1.4 C 92 % 0.25 C
621 15-10-2011 04:13:04 1.5 C 92 % 0.35 C
622 15-10-2011 04:25:04 1.7 C 93 % 0.69 C
623 15-10-2011 04:37:04 1.4 C 92 % 0.25 C
624 15-10-2011 04:49:04 0.9 C 93 % -0.1 C
625 15-10-2011 05:01:04 0.8 C 93 % -0.2 C
Sensor: Nr:Datum:Temp:Feuchte:Taupunkt:
Aussen-T/F 626 15-10-2011 05:13:04 0.9 C 93 % -0.1 C
627 15-10-2011 05:25:04 0.8 C 93 % -0.2 C
628 15-10-2011 05:37:04 1.1 C 92 % -0.05 C
629 15-10-2011 05:49:04 0.6 C 93 % -0.4 C
630 15-10-2011 06:01:04 1.2 C 93 % 0.2 C
631 15-10-2011 06:13:04 0.9 C 93 % -0.1 C
632 15-10-2011 06:25:04 1 C 93 % 0 C
633 15-10-2011 06:37:04 0.6 C 93 % -0.4 C
634 15-10-2011 06:49:04 0.7 C 93 % -0.3 C
635 15-10-2011 07:01:04 0.2 C 93 % -0.79 C
636 15-10-2011 07:13:04 0.2 C 93 % -0.79 C
637 15-10-2011 07:25:02 0.2 C 93 % -0.79 C
638 15-10-2011 07:37:02 0.3 C 93 % -0.7 C
639 15-10-2011 07:49:02 0.3 C 93 % -0.7 C
640 15-10-2011 08:01:02 0.5 C 93 % -0.5 C
641 15-10-2011 08:13:02 0.7 C 93 % -0.3 C
642 15-10-2011 08:25:01 0.3 C 93 % -0.7 C
643 15-10-2011 08:37:02 0.3 C 93 % -0.7 C
644 15-10-2011 08:49:02 0 C 93 % -0.99 C
645 15-10-2011 09:01:02 0.3 C 93 % -0.7 C
646 15-10-2011 09:13:02 0.6 C 93 % -0.4 C
647 15-10-2011 09:25:01 1.4 C 93 % 0.4 C
648 15-10-2011 09:37:02 1.3 C 93 % 0.3 C
649 15-10-2011 09:49:01 1.5 C 93 % 0.49 C
650 15-10-2011 10:01:02 1.6 C 93 % 0.59 C
Sensor: Nr:Datum:Temp:Feuchte:Taupunkt:
Aussen-T/F 651 15-10-2011 10:13:02 1.7 C 94 % 0.84 C
652 15-10-2011 10:25:02 2 C 93 % 0.99 C
653 15-10-2011 10:37:02 2.1 C 93 % 1.09 C
654 15-10-2011 10:49:02 2.6 C 93 % 1.59 C
655 15-10-2011 11:01:01 2.8 C 94 % 1.93 C
656 15-10-2011 11:13:01 3.3 C 93 % 2.28 C
657 15-10-2011 11:25:02 3.7 C 93 % 2.68 C
658 15-10-2011 11:37:01 4.1 C 93 % 3.07 C
659 15-10-2011 11:49:02 4.4 C 93 % 3.37 C
660 15-10-2011 12:01:01 4.9 C 93 % 3.87 C
661 15-10-2011 12:13:01 5.2 C 92 % 4.01 C
662 15-10-2011 12:25:01 5.7 C 92 % 4.5 C
663 15-10-2011 12:37:02 6.3 C 91 % 4.94 C
664 15-10-2011 12:49:02 7 C 89 % 5.31 C
665 15-10-2011 13:01:02 7.4 C 86 % 5.22 C
666 15-10-2011 13:13:02 7.5 C 82 % 4.63 C
667 15-10-2011 13:25:01 9.7 C 72 % 4.9 C
668 15-10-2011 13:37:02 10.2 C 66 % 4.14 C
669 15-10-2011 13:49:02 9.9 C 63 % 3.2 C
670 15-10-2011 14:01:02 9.3 C 53 % 0.23 C
671 15-10-2011 14:13:02 9.6 C 57 % 1.51 C
672 15-10-2011 14:25:01 9.4 C 55 % 0.83 C
673 15-10-2011 14:37:02 10 C 49 % -0.21 C
674 15-10-2011 14:49:01 9.7 C 54 % 0.86 C
675 15-10-2011 15:01:02 9.8 C 54 % 0.95 C
Sensor: Nr:Datum:Temp:Feuchte:Taupunkt:
Aussen-T/F 676 15-10-2011 15:13:02 9.9 C 57 % 1.79 C
677 15-10-2011 15:25:02 10.8 C 46 % -0.34 C
678 15-10-2011 15:37:02 11.1 C 44 % -0.68 C
679 15-10-2011 15:49:02 11.3 C 42 % -1.13 C
680 15-10-2011 16:01:01 11.4 C 45 % -0.09 C
681 15-10-2011 16:13:01 11.7 C 41 % -1.1 C
682 15-10-2011 16:25:02 12.2 C 40 % -0.98 C
683 15-10-2011 16:37:02 12.6 C 42 % 0.04 C
684 15-10-2011 16:49:02 15.2 C 38 % 0.99 C
685 15-10-2011 17:01:03 18.1 C 32 % 1.17 C
686 15-10-2011 17:13:03 18.2 C 27 % -1.08 C
687 15-10-2011 17:25:02 18.5 C 32 % 1.51 C
688 15-10-2011 17:37:02 17.8 C 32 % 0.9 C
689 15-10-2011 17:49:01 15.8 C 37 % 1.16 C
690 15-10-2011 18:01:02 13.1 C 38 % -0.88 C
691 15-10-2011 18:13:02 9.3 C 51 % -0.3 C
692 15-10-2011 18:25:01 8.1 C 56 % -0.13 C
693 15-10-2011 18:37:02 7.4 C 58 % -0.31 C
694 15-10-2011 18:49:01 6.8 C 60 % -0.41 C
695 15-10-2011 19:01:02 6 C 62 % -0.71 C
696 15-10-2011 19:13:02 5.7 C 66 % -0.14 C
697 15-10-2011 19:25:02 5.6 C 66 % -0.24 C
698 15-10-2011 19:37:02 5.4 C 68 % -0.02 C
699 15-10-2011 19:49:02 5.2 C 68 % -0.21 C
700 15-10-2011 20:01:01 4.9 C 71 % 0.09 C
Sensor: Nr:Datum:Temp:Feuchte:Taupunkt:
Aussen-T/F 701 15-10-2011 20:13:01 5.1 C 71 % 0.29 C
702 15-10-2011 20:25:02 4.9 C 72 % 0.29 C
703 15-10-2011 20:37:01 4.4 C 73 % 0 C
704 15-10-2011 20:49:02 4.5 C 75 % 0.46 C
705 15-10-2011 21:01:01 3.8 C 78 % 0.33 C
706 15-10-2011 21:13:01 3.3 C 78 % -0.16 C
707 15-10-2011 21:25:01 3 C 80 % -0.1 C
708 15-10-2011 21:37:02 2.6 C 82 % -0.16 C
709 15-10-2011 21:49:02 2.5 C 83 % -0.09 C
710 15-10-2011 22:01:01 2.6 C 84 % 0.18 C
711 15-10-2011 22:13:01 2.1 C 84 % -0.31 C
712 15-10-2011 22:25:02 1.8 C 85 % -0.45 C
713 15-10-2011 22:37:02 1.6 C 86 % -0.48 C
714 15-10-2011 22:49:02 1.6 C 86 % -0.48 C
715 15-10-2011 23:01:02 1.3 C 86 % -0.78 C
716 15-10-2011 23:13:02 1.1 C 87 % -0.82 C
717 15-10-2011 23:25:02 1 C 87 % -0.91 C
718 15-10-2011 23:37:02 0.9 C 87 % -1.01 C
719 15-10-2011 23:49:01 1.1 C 87 % -0.82 C
720 16-10-2011 00:01:01 1.3 C 88 % -0.46 C
721 16-10-2011 00:13:01 0.9 C 88 % -0.86 C
722 16-10-2011 00:25:01 0.8 C 89 % -0.8 C
723 16-10-2011 00:37:02 0.5 C 88 % -1.25 C
724 16-10-2011 00:49:02 0.2 C 88 % -1.55 C
725 16-10-2011 01:01:02 0.4 C 88 % -1.35 C
Sensor: Nr:Datum:Temp:Feuchte:Taupunkt:
Aussen-T/F 726 16-10-2011 01:13:02 0.4 C 89 % -1.2 C
727 16-10-2011 01:25:01 0.1 C 89 % -1.49 C
728 16-10-2011 01:37:02 0.2 C 89 % -1.39 C
729 16-10-2011 01:49:01 0.1 C 89 % -1.49 C
730 16-10-2011 02:01:02 0 C 89 % -1.59 C
731 16-10-2011 02:13:02 -0.2 C 89 % -1.79 C
732 16-10-2011 02:25:02 -0.1 C 89 % -1.69 C
733 16-10-2011 02:37:02 -0.4 C 89 % -1.99 C
734 16-10-2011 02:50:03 -0.3 C 89 % -1.89 C
735 16-10-2011 03:02:03 -0.1 C 89 % -1.69 C
736 16-10-2011 03:14:03 -0.3 C 90 % -1.74 C
737 16-10-2011 03:26:03 -0.1 C 90 % -1.54 C
738 16-10-2011 03:38:01 -0.3 C 90 % -1.74 C
739 16-10-2011 03:50:01 -0.6 C 90 % -2.03 C
740 16-10-2011 04:02:02 -0.4 C 90 % -1.84 C
741 16-10-2011 04:14:02 -0.5 C 90 % -1.93 C
742 16-10-2011 04:26:02 -0.8 C 90 % -2.23 C
743 16-10-2011 04:38:02 -0.7 C 91 % -1.98 C
744 16-10-2011 04:50:02 -0.9 C 91 % -2.18 C
745 16-10-2011 05:02:01 -0.9 C 91 % -2.18 C
746 16-10-2011 05:14:01 -1 C 91 % -2.28 C
747 16-10-2011 05:26:02 -1.2 C 91 % -2.48 C
748 16-10-2011 05:38:01 -1.3 C 91 % -2.58 C
749 16-10-2011 05:50:02 -1.7 C 91 % -2.97 C
750 16-10-2011 06:02:01 -1.6 C 91 % -2.87 C
Sensor: Nr:Datum:Temp:Feuchte:Taupunkt:
Aussen-T/F 751 16-10-2011 06:14:01 -1.6 C 91 % -2.87 C
752 16-10-2011 06:26:01 -1.6 C 91 % -2.87 C
753 16-10-2011 06:38:02 -1.2 C 91 % -2.48 C
754 16-10-2011 06:50:02 -1.5 C 91 % -2.77 C
755 16-10-2011 07:02:02 -1.1 C 92 % -2.23 C
756 16-10-2011 07:14:02 -1.4 C 92 % -2.53 C
757 16-10-2011 07:26:01 -1.5 C 92 % -2.63 C
758 16-10-2011 07:38:02 -1.7 C 91 % -2.97 C
759 16-10-2011 07:50:02 -1 C 92 % -2.13 C
760 16-10-2011 08:02:02 -0.5 C 92 % -1.64 C
761 16-10-2011 08:14:02 -0.5 C 93 % -1.49 C
762 16-10-2011 08:26:01 -0.7 C 92 % -1.83 C
763 16-10-2011 08:38:02 -0.2 C 93 % -1.19 C
764 16-10-2011 08:50:01 -0.4 C 93 % -1.39 C
765 16-10-2011 09:02:02 -0.4 C 93 % -1.39 C
766 16-10-2011 09:14:02 -0.2 C 93 % -1.19 C
767 16-10-2011 09:26:02 -0.2 C 93 % -1.19 C
768 16-10-2011 09:38:01 -0.6 C 93 % -1.59 C
769 16-10-2011 09:50:02 -0.3 C 93 % -1.29 C
770 16-10-2011 10:02:01 -0.1 C 93 % -1.09 C
771 16-10-2011 10:14:01 0 C 93 % -0.99 C
772 16-10-2011 10:26:02 0.1 C 93 % -0.89 C
773 16-10-2011 10:38:02 0.1 C 93 % -0.89 C
774 16-10-2011 10:50:02 0.5 C 94 % -0.35 C
775 16-10-2011 11:02:03 1.4 C 93 % 0.4 C
Sensor: Nr:Datum:Temp:Feuchte:Taupunkt:
Aussen-T/F 776 16-10-2011 11:14:03 2.4 C 93 % 1.39 C
777 16-10-2011 11:26:02 3.5 C 93 % 2.48 C
778 16-10-2011 11:38:02 4 C 93 % 2.97 C
779 16-10-2011 11:50:01 4.5 C 93 % 3.47 C
780 16-10-2011 12:02:02 5 C 93 % 3.96 C
781 16-10-2011 12:14:02 5.6 C 93 % 4.56 C
782 16-10-2011 12:26:01 6 C 92 % 4.8 C
783 16-10-2011 12:38:01 6.7 C 92 % 5.49 C
784 16-10-2011 12:50:01 7.7 C 89 % 6 C
785 16-10-2011 13:02:01 8.5 C 79 % 5.07 C
786 16-10-2011 13:14:01 9.1 C 69 % 3.72 C
787 16-10-2011 13:26:02 10.6 C 67 % 4.74 C
788 16-10-2011 13:38:01 10.9 C 63 % 4.14 C
789 16-10-2011 13:50:02 11.2 C 53 % 1.99 C
790 16-10-2011 14:02:01 10.8 C 52 % 1.35 C
791 16-10-2011 14:14:01 10.4 C 55 % 1.76 C
792 16-10-2011 14:26:01 11 C 53 % 1.8 C
793 16-10-2011 14:38:01 11.1 C 50 % 1.08 C
794 16-10-2011 14:50:02 10.8 C 55 % 2.13 C
795 16-10-2011 15:02:02 10.9 C 53 % 1.71 C
796 16-10-2011 15:14:02 11.2 C 54 % 2.25 C
797 16-10-2011 15:26:02 11.4 C 53 % 2.17 C
798 16-10-2011 15:38:02 11 C 57 % 2.82 C
799 16-10-2011 15:50:01 11.3 C 53 % 2.08 C
800 16-10-2011 16:02:02 11.4 C 55 % 2.69 C
Sensor: Nr:Datum:Temp:Feuchte:Taupunkt:
Aussen-T/F 801 16-10-2011 16:14:02 11.9 C 50 % 1.82 C
802 16-10-2011 16:26:01 12.4 C 48 % 1.71 C
803 16-10-2011 16:38:01 12.7 C 51 % 2.84 C
804 16-10-2011 16:50:01 13.8 C 46 % 2.4 C
805 16-10-2011 17:02:02 16.1 C 40 % 2.51 C
806 16-10-2011 17:14:02 17.2 C 40 % 3.5 C
807 16-10-2011 17:26:01 17.4 C 38 % 2.95 C
808 16-10-2011 17:38:01 14.9 C 43 % 2.45 C
809 16-10-2011 17:50:01 14.7 C 46 % 3.22 C
810 16-10-2011 18:02:01 12.5 C 51 % 2.65 C
811 16-10-2011 18:14:02 9.6 C 63 % 2.91 C
812 16-10-2011 18:26:01 9 C 67 % 3.21 C
813 16-10-2011 18:38:02 9.1 C 66 % 3.09 C
814 16-10-2011 18:50:01 9.3 C 64 % 2.85 C
815 16-10-2011 19:02:02 9.2 C 63 % 2.53 C
816 16-10-2011 19:14:02 9.5 C 61 % 2.37 C
817 16-10-2011 19:26:02 9.1 C 64 % 2.66 C
818 16-10-2011 19:38:01 9.3 C 63 % 2.63 C
819 16-10-2011 19:50:02 8.9 C 65 % 2.69 C
820 16-10-2011 20:02:01 7.9 C 69 % 2.57 C
821 16-10-2011 20:14:01 7 C 73 % 2.5 C
822 16-10-2011 20:26:02 6.2 C 78 % 2.66 C
823 16-10-2011 20:38:01 5.9 C 82 % 3.07 C
824 16-10-2011 20:50:02 5.7 C 83 % 3.04 C
825 16-10-2011 21:02:02 5.3 C 84 % 2.82 C
Sensor: Nr:Datum:Temp:Feuchte:Taupunkt:
Aussen-T/F 826 16-10-2011 21:14:02 5.1 C 84 % 2.63 C
827 16-10-2011 21:26:02 4.8 C 85 % 2.5 C
828 16-10-2011 21:38:02 5 C 85 % 2.69 C
829 16-10-2011 21:50:01 4.5 C 87 % 2.53 C
830 16-10-2011 22:03:03 4.4 C 87 % 2.43 C
831 16-10-2011 22:15:03 4.3 C 87 % 2.33 C
832 16-10-2011 22:27:03 4.2 C 88 % 2.39 C
833 16-10-2011 22:39:03 4.2 C 89 % 2.55 C
834 16-10-2011 22:51:03 3.9 C 90 % 2.41 C
835 16-10-2011 23:03:03 3.6 C 90 % 2.12 C
836 16-10-2011 23:15:03 3.6 C 90 % 2.12 C
837 16-10-2011 23:27:03 3.4 C 91 % 2.07 C
838 16-10-2011 23:39:03 3.2 C 91 % 1.88 C
839 16-10-2011 23:51:03 3.1 C 90 % 1.62 C

Legende:
   Min
   Max


Maximal/Minimal-Werte vom 10.10.2011 - 16.10.2011

Sensor Min Max Avg
Temp
(Aussen-T/F)
-1.7 °C
16-10-2011  05:50:02
22.4 °C
10-10-2011  16:57:02
10.56 °C
Feuchte
(Aussen-T/F)
27 %
15-10-2011  17:13:03
94 %
15-10-2011  10:13:02
72.61 %
Taupunkt
(Aussen-T/F)
-2.97 C
16-10-2011  05:50:02
13.42 C
10-10-2011  09:45:02
5.36 C

Die Daten stammen von einer Davis Vantage Pro 2 Wetter-Station und werden unter Linux mit der Software wview2wettercgi und aufbereitet. Alle Angaben erfolgen ohne Gewähr für ihre Vollständigkeit oder Richtigkeit.
Kontakt: Rainer Krienke krienke@uni-koblenz.de . Meine Webseiten an der Uni Koblenz oder privat.
Version: $Revision: 0.78 $